Terminal Aerodrome Forecast
Issued by NWS North Platte, NE

Home | Current Version | Previous Version | Text Only | Print | Product List | Glossary On
Versions: 1 2 3 4 5 6 7 8 9 10 11 12 13 14 15 16 17 18 19 20 21
000
FTUS43 KLBF 231000 AAA
TAFLBF
TAF AMD
KLBF 231044Z 2311/2406 14008KT P6SM BKN007
      TEMPO 2311/2313 1SM -DZ BR OVC003
     FM231600 12012KT 4SM BR OVC007
     FM231800 13012KT P6SM OVC015
     FM240000 11014G25KT 4SM -RA BR OVC004=

USA.gov is the U.S. government's official web portal to all federal, state and local government web resources and services.